Map

Track Data

SID SEASON NUMBER BASIN SUBBASIN NAME ISO_TIME NATURE LAT LON WMO_WIND WMO_PRES WMO_AGENCY TRACK_TYPE DIST2LAND LANDFALL IFLAG USA_AGENCY USA_ATCF_ID USA_LAT USA_LON USA_RECORD USA_STATUS USA_WIND USA_PRES USA_SSHS USA_R34_NE USA_R34_SE USA_R34_SW USA_R34_NW USA_R50_NE USA_R50_SE USA_R50_SW USA_R50_NW USA_R64_NE USA_R64_SE USA_R64_SW USA_R64_NW USA_POCI USA_ROCI USA_RMW USA_EYE TOKYO_LAT TOKYO_LON TOKYO_GRADE TOKYO_WIND TOKYO_PRES TOKYO_R50_DIR TOKYO_R50_LONG TOKYO_R50_SHORT TOKYO_R30_DIR TOKYO_R30_LONG TOKYO_R30_SHORT TOKYO_LAND CMA_LAT CMA_LON CMA_CAT CMA_WIND CMA_PRES HKO_LAT HKO_LON HKO_CAT HKO_WIND HKO_PRES NEWDELHI_LAT NEWDELHI_LON NEWDELHI_GRADE NEWDELHI_WIND NEWDELHI_PRES NEWDELHI_CI NEWDELHI_DP NEWDELHI_POCI REUNION_LAT REUNION_LON REUNION_TYPE REUNION_WIND REUNION_PRES REUNION_TNUM REUNION_CI REUNION_RMW REUNION_R34_NE REUNION_R34_SE REUNION_R34_SW REUNION_R34_NW REUNION_R50_NE REUNION_R50_SE REUNION_R50_SW REUNION_R50_NW REUNION_R64_NE REUNION_R64_SE REUNION_R64_SW REUNION_R64_NW BOM_LAT BOM_LON BOM_TYPE BOM_WIND BOM_PRES BOM_TNUM BOM_CI BOM_RMW BOM_R34_NE BOM_R34_SE BOM_R34_SW BOM_R34_NW BOM_R50_NE BOM_R50_SE BOM_R50_SW BOM_R50_NW BOM_R64_NE BOM_R64_SE BOM_R64_SW BOM_R64_NW BOM_ROCI BOM_POCI BOM_EYE BOM_POS_METHOD BOM_PRES_METHOD NADI_LAT NADI_LON NADI_CAT NADI_WIND NADI_PRES WELLINGTON_LAT WELLINGTON_LON WELLINGTON_WIND WELLINGTON_PRES DS824_LAT DS824_LON DS824_STAGE DS824_WIND DS824_PRES TD9636_LAT TD9636_LON TD9636_STAGE TD9636_WIND TD9636_PRES TD9635_LAT TD9635_LON TD9635_WIND TD9635_PRES TD9635_ROCI NEUMANN_LAT NEUMANN_LON NEUMANN_CLASS NEUMANN_WIND NEUMANN_PRES MLC_LAT MLC_LON MLC_CLASS MLC_WIND MLC_PRES USA_GUST BOM_GUST BOM_GUST_PER REUNION_GUST REUNION_GUST_PER USA_SEAHGT USA_SEARAD_NE USA_SEARAD_SE USA_SEARAD_SW USA_SEARAD_NW STORM_SPEED STORM_DIR
1931279N11146 1931 43 WP MM NOT_NAMED 1931-10-05 22:00:00 NR 10.8000 145.800 main 1448 1448 __________O___ -1 10.8000 145.800 7 7 294
1931279N11146 1931 43 WP MM NOT_NAMED 1931-10-06 00:00:00 NR 10.9002 145.570 main 1460 1460 __________P___ -1 10.9002 145.570 7 7 294
1931279N11146 1931 43 WP MM NOT_NAMED 1931-10-06 03:00:00 NR 11.0503 145.224 main 1487 1487 __________P___ -1 11.0503 145.224 7 7 294
1931279N11146 1931 43 WP MM NOT_NAMED 1931-10-06 06:00:00 NR 11.2002 144.874 main 1502 1502 __________P___ -1 11.2002 144.874 7 8 293
1931279N11146 1931 43 WP MM NOT_NAMED 1931-10-06 09:00:00 NR 11.3501 144.520 main 1530 1530 __________P___ -1 11.3501 144.520 7 8 293
1931279N11146 1931 43 WP MM NOT_NAMED 1931-10-06 10:00:00 NR 11.4000 144.400 main 1532 1532 __________O___ -1 11.4000 144.400 7 8 293
1931279N11146 1931 43 WP MM NOT_NAMED 1931-10-06 12:00:00 NR 11.4999 144.158 main 1546 1548 __________P___ -1 11.4999 144.158 7 8 293
1931279N11146 1931 43 WP MM NOT_NAMED 1931-10-06 15:00:00 NR 11.6498 143.789 main 1565 1576 __________P___ -1 11.6498 143.789 7 8 292
1931279N11146 1931 43 WP MM NOT_NAMED 1931-10-06 18:00:00 NR 11.7998 143.413 main 1597 1597 __________P___ -1 11.7998 143.413 7 8 292
1931279N11146 1931 43 WP MM NOT_NAMED 1931-10-06 21:00:00 NR 11.9499 143.030 main 1603 1609 __________P___ -1 11.9499 143.030 7 8 292
1931279N11146 1931 43 WP MM NOT_NAMED 1931-10-06 22:00:00 NR 12.0000 142.900 main 1609 1606 __________O___ -1 12.0000 142.900 7 8 291
1931279N11146 1931 43 WP MM NOT_NAMED 1931-10-07 00:00:00 NR 12.0920 142.644 main 1610 1606 __________P___ -1 12.0920 142.644 7 8 290
1931279N11146 1931 43 WP MM NOT_NAMED 1931-10-07 03:00:00 NR 12.2299 142.254 main 1611 1608 __________P___ -1 12.2299 142.254 7 8 290
1931279N11146 1931 43 WP MM NOT_NAMED 1931-10-07 06:00:00 NR 12.3760 141.854 main 1620 1609 __________P___ -1 12.3760 141.854 7 9 291
1931279N11146 1931 43 WP MM NOT_NAMED 1931-10-07 09:00:00 NR 12.5398 141.441 main 1609 1609 __________P___ -1 12.5398 141.441 7 9 292
1931279N11146 1931 43 WP MM NOT_NAMED 1931-10-07 10:00:00 NR 12.6000 141.300 main 1615 1611 __________O___ -1 12.6000 141.300 7 10 294
1931279N11146 1931 43 WP MM NOT_NAMED 1931-10-07 12:00:00 NR 12.7382 140.993 main 1613 1615 __________P___ -1 12.7382 140.993 7 10 296
1931279N11146 1931 43 WP MM NOT_NAMED 1931-10-07 15:00:00 NR 12.9646 140.520 main 1615 1574 __________P___ -1 12.9646 140.520 7 10 297
1931279N11146 1931 43 WP MM NOT_NAMED 1931-10-07 18:00:00 NR 13.1998 140.056 main 1574 1524 __________P___ -1 13.1998 140.056 7 10 298
1931279N11146 1931 43 WP MM NOT_NAMED 1931-10-07 21:00:00 NR 13.4281 139.629 main 1524 1515 __________P___ -1 13.4281 139.629 7 9 299
1931279N11146 1931 43 WP MM NOT_NAMED 1931-10-07 22:00:00 NR 13.5000 139.500 main 1515 1495 __________O___ -1 13.5000 139.500 7 8 300
1931279N11146 1931 43 WP MM NOT_NAMED 1931-10-08 00:00:00 NR 13.6224 139.287 main 1495 1468 __________P___ -1 13.6224 139.287 7 7 302
1931279N11146 1931 43 WP MM NOT_NAMED 1931-10-08 03:00:00 NR 13.7936 139.012 main 1468 1448 __________P___ -1 13.7936 139.012 7 6 304
1931279N11146 1931 43 WP MM NOT_NAMED 1931-10-08 06:00:00 NR 13.9611 138.760 main 1451 1422 __________P___ -1 13.9611 138.760 7 6 305
1931279N11146 1931 43 WP MM NOT_NAMED 1931-10-08 09:00:00 NR 14.1372 138.496 main 1422 1414 __________P___ -1 14.1372 138.496 7 6 304
1931279N11146 1931 43 WP MM NOT_NAMED 1931-10-08 10:00:00 NR 14.2000 138.400 main 1414 1395 __________O___ -1 14.2000 138.400 7 8 303
1931279N11146 1931 43 WP MM NOT_NAMED 1931-10-08 12:00:00 NR 14.3465 138.168 main 1395 1357 __________P___ -1 14.3465 138.168 7 8 303
1931279N11146 1931 43 WP MM NOT_NAMED 1931-10-08 15:00:00 NR 14.5791 137.794 main 1357 1319 __________P___ -1 14.5791 137.794 7 9 302
1931279N11146 1931 43 WP MM NOT_NAMED 1931-10-08 18:00:00 NR 14.8130 137.406 main 1319 1282 __________P___ -1 14.8130 137.406 7 9 301
1931279N11146 1931 43 WP MM NOT_NAMED 1931-10-08 21:00:00 NR 15.0326 137.023 main 1282 1274 __________P___ -1 15.0326 137.023 7 9 300
1931279N11146 1931 43 WP MM NOT_NAMED 1931-10-08 22:00:00 NR 15.1000 136.900 main 1274 1256 __________O___ -1 15.1000 136.900 7 8 298
1931279N11146 1931 43 WP MM NOT_NAMED 1931-10-09 00:00:00 NR 15.2117 136.669 main 1256 1220 __________P___ -1 15.2117 136.669 7 7 296
1931279N11146 1931 43 WP MM NOT_NAMED 1931-10-09 03:00:00 NR 15.3604 136.335 main 1220 1192 __________P___ -1 15.3604 136.335 7 7 295
1931279N11146 1931 43 WP MM NOT_NAMED 1931-10-09 06:00:00 NR 15.5003 136.014 main 1192 1165 __________P___ -1 15.5003 136.014 7 7 295
1931279N11146 1931 43 WP MM NOT_NAMED 1931-10-09 09:00:00 NR 15.6469 135.702 main 1165 1158 __________P___ -1 15.6469 135.702 7 7 297
1931279N11146 1931 43 WP MM NOT_NAMED 1931-10-09 10:00:00 NR 15.7000 135.600 main 1158 1141 __________O___ -1 15.7000 135.600 7 7 300
1931279N11146 1931 43 WP MM NOT_NAMED 1931-10-09 12:00:00 NR 15.8139 135.399 main 1141 1119 __________P___ -1 15.8139 135.399 7 7 302
1931279N11146 1931 43 WP MM NOT_NAMED 1931-10-09 15:00:00 NR 15.9972 135.105 main 1119 1098 __________P___ -1 15.9972 135.105 7 7 304
1931279N11146 1931 43 WP MM NOT_NAMED 1931-10-09 18:00:00 NR 16.1984 134.810 main 1098 1077 __________P___ -1 16.1984 134.810 7 7 306
1931279N11146 1931 43 WP MM NOT_NAMED 1931-10-09 21:00:00 NR 16.4207 134.505 main 1077 1072 __________P___ -1 16.4207 134.505 7 7 307
1931279N11146 1931 43 WP MM NOT_NAMED 1931-10-09 22:00:00 NR 16.5000 134.400 main 1072 1058 __________O___ -1 16.5000 134.400 7 8 308
1931279N11146 1931 43 WP MM NOT_NAMED 1931-10-10 00:00:00 NR 16.6635 134.183 main 1063 1036 __________P___ -1 16.6635 134.183 7 8 309
1931279N11146 1931 43 WP MM NOT_NAMED 1931-10-10 03:00:00 NR 16.9276 133.846 main 1036 1026 __________P___ -1 16.9276 133.846 7 9 310
1931279N11146 1931 43 WP MM NOT_NAMED 1931-10-10 06:00:00 NR 17.2089 133.493 main 1026 1009 __________P___ -1 17.2089 133.493 7 9 310
1931279N11146 1931 43 WP MM NOT_NAMED 1931-10-10 09:00:00 NR 17.5012 133.126 main 1009 1007 __________P___ -1 17.5012 133.126 7 9 310
1931279N11146 1931 43 WP MM NOT_NAMED 1931-10-10 10:00:00 NR 17.6000 133.000 main 1007 989 __________O___ -1 17.6000 133.000 7 10 309
1931279N11146 1931 43 WP MM NOT_NAMED 1931-10-10 12:00:00 NR 17.8023 132.732 main 989 966 __________P___ -1 17.8023 132.732 7 10 308
1931279N11146 1931 43 WP MM NOT_NAMED 1931-10-10 15:00:00 NR 18.1121 132.317 main 966 946 __________P___ -1 18.1121 132.317 7 10 308
1931279N11146 1931 43 WP MM NOT_NAMED 1931-10-10 18:00:00 NR 18.4185 131.905 main 946 928 __________P___ -1 18.4185 131.905 7 10 308
1931279N11146 1931 43 WP MM NOT_NAMED 1931-10-10 21:00:00 NR 18.7089 131.519 main 928 926 __________P___ -1 18.7089 131.519 7 9 309
1931279N11146 1931 43 WP MM NOT_NAMED 1931-10-10 22:00:00 NR 18.8000 131.400 main 926 916 __________O___ -1 18.8000 131.400 7 8 310
1931279N11146 1931 43 WP MM NOT_NAMED 1931-10-11 00:00:00 NR 18.9641 131.195 main 922 909 __________P___ -1 18.9641 131.195 7 7 311
1931279N11146 1931 43 WP MM NOT_NAMED 1931-10-11 03:00:00 NR 19.1915 130.921 main 909 889 __________P___ -1 19.1915 130.921 7 7 311
1931279N11146 1931 43 WP MM NOT_NAMED 1931-10-11 06:00:00 NR 19.4077 130.662 main 890 862 __________P___ -1 19.4077 130.662 7 7 311
1931279N11146 1931 43 WP MM NOT_NAMED 1931-10-11 09:00:00 NR 19.6251 130.395 main 862 853 __________P___ -1 19.6251 130.395 7 7 311
1931279N11146 1931 43 WP MM NOT_NAMED 1931-10-11 10:00:00 NR 19.7000 130.300 main 853 834 __________O___ -1 19.7000 130.300 7 8 308
1931279N11146 1931 43 WP MM NOT_NAMED 1931-10-11 12:00:00 NR 19.8663 130.073 main 836 799 __________P___ -1 19.8663 130.073 7 8 307
1931279N11146 1931 43 WP MM NOT_NAMED 1931-10-11 15:00:00 NR 20.1222 129.714 main 799 774 __________P___ -1 20.1222 129.714 7 9 307
1931279N11146 1931 43 WP MM NOT_NAMED 1931-10-11 18:00:00 NR 20.3773 129.352 main 777 744 __________P___ -1 20.3773 129.352 7 8 307
1931279N11146 1931 43 WP MM NOT_NAMED 1931-10-11 21:00:00 NR 20.6222 129.007 main 744 737 __________P___ -1 20.6222 129.007 7 8 307
1931279N11146 1931 43 WP MM NOT_NAMED 1931-10-11 22:00:00 NR 20.7000 128.900 main 737 722 __________O___ -1 20.7000 128.900 7 7 307
1931279N11146 1931 43 WP MM NOT_NAMED 1931-10-12 00:00:00 NR 20.8313 128.713 main 722 711 __________P___ -1 20.8313 128.713 7 6 307
1931279N11146 1931 43 WP MM NOT_NAMED 1931-10-12 03:00:00 NR 21.0157 128.457 main 711 692 __________P___ -1 21.0157 128.457 7 6 309
1931279N11146 1931 43 WP MM NOT_NAMED 1931-10-12 06:00:00 NR 21.2043 128.218 main 692 683 __________P___ -1 21.2043 128.218 7 6 312
1931279N11146 1931 43 WP MM NOT_NAMED 1931-10-12 09:00:00 NR 21.4189 127.981 main 683 680 __________P___ -1 21.4189 127.981 7 6 315
1931279N11146 1931 43 WP MM NOT_NAMED 1931-10-12 10:00:00 NR 21.5000 127.900 main 680 666 __________O___ -1 21.5000 127.900 3 7 318
1931279N11146 1931 43 WP MM NOT_NAMED 1931-10-12 12:00:00 NR 21.6796 127.731 main 666 636 __________P___ -1 21.6796 127.731 3 8 320
1931279N11146 1931 43 WP MM NOT_NAMED 1931-10-12 15:00:00 NR 21.9858 127.464 main 636 593 __________P___ -1 21.9858 127.464 3 8 322
1931279N11146 1931 43 WP MM NOT_NAMED 1931-10-12 18:00:00 NR 22.3238 127.184 main 593 547 __________P___ -1 22.3238 127.184 3 9 323
1931279N11146 1931 43 WP MM NOT_NAMED 1931-10-12 21:00:00 NR 22.6798 126.897 main 547 533 __________P___ -1 22.6798 126.897 3 9 323
1931279N11146 1931 43 WP MM NOT_NAMED 1931-10-12 22:00:00 NR 22.8000 126.800 main 533 __________O___ -1 22.8000 126.800 4 9 324

Digital Typhoon Data and Search

About IBTrACS Database

This database is a web-friendly format of International Best Track Archive for Climate Stewardship (IBTrACS), a global best track data archive curated by NOAA dating back to 1842.

Updated: 2021-10-27